EST,Max TemperatureF,Mean TemperatureF,Min TemperatureF,Max Dew PointF,MeanDew PointF,Min DewpointF,Max Humidity, Mean Humidity, Min Humidity, Max Sea Level PressureIn, Mean Sea Level PressureIn, Min Sea Level PressureIn, Max VisibilityMiles, Mean VisibilityMiles, Min VisibilityMiles, Max Wind SpeedMPH, Mean Wind SpeedMPH, Max Gust SpeedMPH,PrecipitationIn, CloudCover, Events, WindDirDegrees
2012-11-1,50,44,39,37,37,36,87,75,58,29.60,29.57,29.54,10,10,10,8,4,,0.00,6,,245
2012-11-2,48,44,41,37,35,28,81,69,46,29.71,29.62,29.58,10,10,10,10,3,18,0.00,7,,297
2012-11-3,46,40,35,32,29,27,81,66,49,29.90,29.79,29.71,10,10,10,20,9,32,0.00,3,,320
2012-11-4,46,40,35,30,27,27,70,64,50,29.97,29.93,29.89,10,10,10,14,8,21,0.00,2,,328
2012-11-5,39,32,26,27,22,16,70,61,48,30.17,30.03,29.97,10,10,10,17,10,29,0.00,5,,346
2012-11-6,39,30,21,19,16,12,80,60,36,30.23,30.17,30.12,10,10,10,13,5,,0.00,0,,18
2012-11-7,35,32,28,27,22,16,86,71,55,30.12,29.93,29.74,10,6,0,26,13,38,0.00,3,Fog-Snow,34
2012-11-8,75,52,30,27,26,25,86,74,17,29.87,29.76,29.71,10,7,1,24,20,34,0.00,8,Snow,350
2012-11-9,50,42,33,30,23,16,70,55,30,30.18,30.00,29.87,10,10,10,18,12,28,0.00,1,,332
2012-11-10,53,44,35,37,33,28,81,68,51,30.45,30.30,30.18,10,9,6,6,1,,0.00,4,,286
2012-11-11,62,52,42,46,42,36,87,78,52,30.51,30.48,30.44,10,8,5,12,5,17,0.00,2,,196
2012-11-12,62,54,46,55,50,45,100,88,72,30.50,30.41,30.23,10,5,0,15,6,25,0.00,6,Fog,203
2012-11-13,60,48,35,57,41,25,88,77,60,30.44,30.29,30.15,10,10,4,17,10,24,0.03,7,Rain,316
2012-11-14,44,37,30,41,23,19,93,63,46,30.53,30.48,30.45,10,10,10,16,8,23,0.00,0,,17
2012-11-15,42,33,24,25,21,18,80,64,45,30.47,30.40,30.31,10,10,10,10,5,,0.00,0,,24
2012-11-16,44,37,30,27,23,19,80,66,46,30.44,30.33,30.29,10,10,10,10,5,,0.00,0,,5
2012-11-17,48,38,28,32,24,19,75,65,43,30.65,30.56,30.44,10,10,10,12,7,17,0.00,0,,20
2012-11-18,46,39,32,28,25,21,75,64,50,30.70,30.65,30.61,10,10,10,10,5,,0.00,0,,59
2012-11-19,44,37,30,34,28,25,86,74,57,30.60,30.45,30.26,10,10,10,12,6,16,0.00,1,,42
2012-11-20,46,37,28,30,26,23,93,74,46,30.26,30.20,30.14,10,10,10,8,3,,0.00,0,,25
2012-11-21,48,42,35,30,25,23,65,55,40,30.27,30.20,30.17,10,10,4,12,5,,0.00,0,,42
2012-11-22,55,46,37,37,34,30,87,67,47,30.29,30.23,30.14,10,10,10,5,3,,0.00,0,,50
2012-11-23,53,43,33,43,38,30,93,76,51,30.07,29.91,29.76,7,6,2,12,4,17,0.00,1,Fog,215
2012-11-24,41,37,33,28,18,14,61,44,36,29.74,29.69,29.66,10,10,10,13,9,28,0.00,5,,316
2012-11-25,37,34,30,30,17,12,81,51,41,29.90,29.85,29.82,10,10,10,12,9,23,0.00,3,,291
2012-11-26,42,35,28,21,18,16,59,47,36,30.23,30.10,29.97,10,10,10,12,7,23,0.00,2,,301
2012-11-27,33,32,30,30,28,21,93,85,60,30.32,30.27,30.23,10,3,1,10,3,,0.00,8,Snow,51
2012-11-28,37,32,28,27,23,18,86,66,52,30.21,30.19,30.16,10,10,10,12,8,18,0.00,4,,342
2012-11-29,42,33,24,23,21,18,80,57,39,30.32,30.28,30.23,10,10,10,12,5,,0.00,0,,263
2012-11-30,37,32,28,27,20,12,74,63,51,30.50,30.44,30.34,10,10,7,12,7,17,0.00,6,,61